ADDS METAR Data INFO
IDs: Format: Raw Decoded Include TAF

Data at: 1144 UTC 25 Jun 2018

KHRX 251135Z AUTO 35008KT 10SM BKN060 OVC075 17/14 A3011 RMK AO2 T01700140
KHRX 251115Z AUTO 36006KT 10SM SCT060 OVC075 17/14 A3010 RMK AO2 T01700139
KHRX 251055Z AUTO 01006KT 10SM BKN060 OVC075 17/14 A3009 RMK AO2 T01700138
KHRX 251035Z AUTO 03005KT 10SM OVC060 17/14 A3009 RMK AO2 T01710139
KHRX 251015Z AUTO 05007KT 10SM OVC060 17/14 A3008 RMK AO2 T01720137
KHRX 250955Z AUTO 03006KT 10SM OVC060 17/14 A3007 RMK AO2 T01730136
KHRX 250935Z AUTO 04007KT 10SM OVC070 17/14 A3006 RMK AO2 T01730136
KHRX 250915Z AUTO 05009KT 10SM OVC060 17/14 A3005 RMK AO2 T01730135
KHRX 250855Z AUTO 06009KT 10SM BKN070 OVC080 18/14 A3005 RMK AO2 T01750135
KHRX 250835Z AUTO 05011KT 10SM BKN060 BKN080 18/14 A3004 RMK AO2 T01750135
KHRX 250815Z AUTO 03012G20KT 10SM SCT060 BKN070 18/13 A3004 RMK AO2 T01750133
KHRX 250755Z AUTO 14007KT 090V160 10SM OVC050 17/13 A3004 RMK AO2 LTG DSNT NE T01720133
KHRX 250735Z AUTO 04016G23KT 10SM SCT048 OVC055 17/13 A3004 RMK AO2 T01720133
KHRX 250715Z AUTO 04018G26KT 10SM BKN048 BKN055 17/13 A3005 RMK AO2 LTG DSNT N THRU E T01740132
KHRX 250655Z AUTO 04017G21KT 10SM SCT044 17/13 A3003 RMK AO2 LTG DSNT NW T01730130
KHRX 250635Z AUTO 04019G32KT 10SM CLR 17/13 A3002 RMK AO2 LTG DSNT E T01730128
KHRX 250615Z AUTO 04036G46KT 10SM CLR 18/13 A2998 RMK AO2 LTG DSNT NW THRU E T01770130
KHRX 250555Z AUTO 03034G44KT 7SM SCT065 SCT080 SCT120 18/13 A2997 RMK AO2 LTG DSNT NW T01770126 10316 20177 403380177
KHRX 250535Z AUTO 03037G44KT 4SM HZ SCT004 SCT030 BKN065 19/13 A3002 RMK AO2 T01870132
KHRX 250515Z AUTO 01028G45KT 1 3/4SM HZ SCT002 SCT022 BKN031 22/14 A2997 RMK AO2 LTG DSNT N T02180141
KHRX 250455Z AUTO 12011G24KT 10SM CLR 25/19 A2984 RMK AO2 LTG DSNT N AND NW T02500185
KHRX 250435Z AUTO 01013G16KT 10SM CLR 24/19 A2984 RMK AO2 LTG DSNT NW T02430185
KHRX 250415Z AUTO 13015G21KT 10SM CLR 25/19 A2981 RMK AO2 LTG DSNT N AND NW T02450185
KHRX 250355Z AUTO 11014KT 10SM CLR 25/19 A2984 RMK AO2 LTG DSNT NW T02450185
KHRX 250335Z AUTO 12018KT 10SM CLR 25/19 A2985 RMK AO2 T02490186
KHRX 250315Z AUTO 12016G21KT 10SM CLR 25/19 A2985 RMK AO2 T02500190
KHRX 250255Z AUTO 11017G21KT 10SM CLR 25/19 A2985 RMK AO2 T02520190
KHRX 250235Z AUTO 11014G19KT 10SM CLR 26/19 A2985 RMK AO2 T02570190
KHRX 250215Z AUTO 10018G22KT 10SM CLR 26/19 A2985 RMK AO2 T02630190
KHRX 250155Z AUTO 11015G23KT 10SM CLR 27/19 A2984 RMK AO2 T02710190
KHRX 250135Z AUTO 11015G22KT 10SM CLR 28/19 A2984 RMK AO2 T02800191
KHRX 250115Z AUTO 12017G22KT 10SM CLR 29/19 A2983 RMK AO2 T02900190
KHRX 250055Z AUTO 12019G25KT 10SM CLR 30/19 A2982 RMK AO2 T02960190
KHRX 250035Z AUTO 11017G24KT 10SM CLR 31/19 A2982 RMK AO2 T03050190
KHRX 250015Z AUTO 11020KT 10SM CLR 31/19 A2983 RMK AO2 T03110189
KHRX 242355Z AUTO 11020G24KT 10SM CLR 32/19 A2983 RMK AO2 T03190187 10338 20295
KHRX 242335Z AUTO 10018KT 10SM CLR 32/18 A2984 RMK AO2 T03210184
KHRX 242315Z AUTO 12017G21KT 10SM CLR 33/19 A2984 RMK AO2 T03260185
KHRX 242255Z AUTO 08017G22KT 10SM CLR 33/19 A2985 RMK AO2 T03300185
KHRX 242235Z AUTO 12012G24KT 10SM CLR 33/19 A2984 RMK AO2 T03280185
KHRX 242215Z AUTO 12017G25KT 10SM CLR 33/19 A2984 RMK AO2 T03300187
KHRX 242155Z AUTO 09015G23KT 10SM CLR 33/19 A2985 RMK AO2 T03280187
KHRX 242135Z AUTO 10014G22KT 10SM CLR 33/19 A2985 RMK AO2 T03290187
KHRX 242115Z AUTO 09016G23KT 10SM CLR 33/19 A2985 RMK AO2 T03260188
KHRX 242055Z AUTO 07019G23KT 10SM CLR 33/19 A2986 RMK AO2 T03270190
KHRX 242035Z AUTO 08017G26KT 10SM CLR 33/19 A2986 RMK AO2 LTG DSNT N T03270190
KHRX 242015Z AUTO 07018G22KT 10SM CLR 32/19 A2986 RMK AO2 T03170188
KHRX 241955Z AUTO 04020G26KT 10SM CLR 31/19 A2986 RMK AO2 T03090187
KHRX 241935Z AUTO 05019G29KT 10SM CLR 30/19 A2987 RMK AO2 T02990185
KHRX 241915Z AUTO 04022G29KT 10SM CLR 30/18 A2987 RMK AO2 T03010183
KHRX 241855Z AUTO 04023G31KT 10SM CLR 33/19 A2986 RMK AO2 T03280194
KHRX 241835Z AUTO 04018G25KT 10SM CLR 34/19 A2986 RMK AO2 T03360192
KHRX 241815Z AUTO 06017G22KT 10SM CLR 33/18 A2986 RMK AO2 T03330182
KHRX 241755Z AUTO 03021G26KT 10SM CLR 33/19 A2986 RMK AO2 T03270188 10334 20240
KHRX 241735Z AUTO 02019G28KT 10SM CLR 31/19 A2987 RMK AO2 T03120189
KHRX 241715Z AUTO 02022G27KT 10SM CLR 31/19 A2987 RMK AO2 T03090187
KHRX 241655Z AUTO 03024KT 7SM CLR 32/18 A2986 RMK AO2 T03230181
KHRX 241635Z AUTO 35011G16KT 10SM CLR 33/14 A2985 RMK AO2 T03300137
KHRX 241615Z AUTO 34012KT 10SM CLR 33/14 A2985 RMK AO2 T03290138
KHRX 241555Z AUTO 30012KT 10SM CLR 33/14 A2985 RMK AO2 T03260139
KHRX 241535Z AUTO 30007G16KT 10SM CLR 32/15 A2986 RMK AO2 T03180146
KHRX 241515Z AUTO 26012KT 10SM CLR 31/16 A2984 RMK AO2 T03080156
KHRX 241455Z AUTO 24013KT 10SM CLR 30/17 A2984 RMK AO2 T03030165
KHRX 241435Z AUTO 23015G19KT 7SM CLR 29/17 A2983 RMK AO2 T02910171
KHRX 241415Z AUTO 22017G21KT 10SM CLR 28/18 A2982 RMK AO2 T02830175
KHRX 241355Z AUTO 21014KT 10SM CLR 27/18 A2982 RMK AO2 T02740178
KHRX 241335Z AUTO 21014KT 7SM CLR 27/18 A2982 RMK AO2 T02660179
KHRX 241315Z AUTO 21009KT 7SM CLR 26/18 A2983 RMK AO2 T02580178
KHRX 241255Z AUTO 21006KT 7SM CLR 25/18 A2983 RMK AO2 T02480178
KHRX 241235Z AUTO 20008KT 7SM CLR 24/18 A2982 RMK AO2 T02400177
KHRX 241215Z AUTO 22008KT 7SM CLR 24/18 A2982 RMK AO2 T02410175
KHRX 241155Z AUTO 21008KT 7SM CLR 24/17 A2980 RMK AO2 T02410173 10250 20224
KHRX 241135Z AUTO 21009KT 10SM CLR 25/17 A2980 RMK AO2 T02450172
KHRX 241115Z AUTO 20008KT 10SM CLR 24/17 A2981 RMK AO2 T02420171
KHRX 241055Z AUTO 21007KT 10SM CLR 24/17 A2980 RMK AO2 T02420172
KHRX 241035Z AUTO 21006KT 10SM CLR 23/18 A2980 RMK AO2 T02340176
KHRX 241015Z AUTO 20007KT 10SM CLR 23/18 A2980 RMK AO2 T02330179
KHRX 240955Z AUTO 20008KT 10SM CLR 24/18 A2980 RMK AO2 T02360181
KHRX 240935Z AUTO 20009KT 10SM CLR 24/18 A2980 RMK AO2 T02420181
KHRX 240915Z AUTO 19008KT 10SM CLR 24/19 A2980 RMK AO2 T02360185
KHRX 240855Z AUTO 16006KT 10SM CLR 23/19 A2980 RMK AO2 T02250189
KHRX 240835Z AUTO 14005KT 10SM CLR 23/19 A2981 RMK AO2 T02300192
KHRX 240815Z AUTO 14007KT 10SM CLR 23/20 A2981 RMK AO2 T02300196
KHRX 240800Z AUTO 14009G15KT 10SM CLR 24/20 A2981 RMK AO2 T02350198
KHRX 240735Z AUTO 13011KT 10SM CLR 24/20 A2983 RMK AO2 T02360200
KHRX 240715Z AUTO 13010KT 10SM CLR 24/20 A2983 RMK AO2 T02400200
KHRX 240655Z AUTO 12012KT 10SM CLR 24/20 A2983 RMK AO2 T02420200
KHRX 240635Z AUTO 12012G15KT 10SM CLR 25/20 A2983 RMK AO2 T02460198
KHRX 240615Z AUTO 12010KT 10SM CLR 25/20 A2984 RMK AO2 T02470197
KHRX 240555Z AUTO 12012KT 10SM CLR 25/20 A2983 RMK AO2 T02500196 10336 20250 403360176
KHRX 240535Z AUTO 13014KT 10SM CLR 25/20 A2983 RMK AO2 T02520195
KHRX 240515Z AUTO 12012G17KT 10SM CLR 25/20 A2983 RMK AO2 T02530195
KHRX 240455Z AUTO 13014KT 10SM CLR 26/19 A2982 RMK AO2 T02560194
KHRX 240435Z AUTO 13014KT 10SM CLR 26/19 A2983 RMK AO2 T02590191
KHRX 240415Z AUTO 13013KT 10SM CLR 26/19 A2982 RMK AO2 T02600186
KHRX 240355Z AUTO 12010KT 10SM CLR 26/18 A2982 RMK AO2 T02620178
KHRX 240335Z AUTO 13010KT 10SM CLR 26/17 A2981 RMK AO2 T02640166
KHRX 240315Z AUTO 12009KT 10SM CLR 26/16 A2980 RMK AO2 T02600155
KHRX 240255Z AUTO 12007KT 10SM CLR 26/15 A2980 RMK AO2 T02640153
KHRX 240235Z AUTO 13007KT 10SM CLR 28/15 A2980 RMK AO2 T02790151
KHRX 240215Z AUTO 12007KT 10SM CLR 29/15 A2980 RMK AO2 T02940146
KHRX 240155Z AUTO 14010KT 10SM CLR 31/15 A2980 RMK AO2 T03060146
KHRX 240135Z AUTO 14012KT 10SM CLR 32/14 A2980 RMK AO2 T03160140
KHRX 240115Z AUTO 13011KT 10SM CLR 32/14 A2979 RMK AO2 T03210139
KHRX 240055Z AUTO 16013KT 10SM CLR 33/14 A2980 RMK AO2 T03270136
KHRX 240035Z AUTO 15013KT 10SM CLR 33/13 A2980 RMK AO2 T03320131
KHRX 240015Z AUTO 16008G15KT 10SM CLR 33/13 A2982 RMK AO2 T03330133
KHRX 232355Z AUTO 17004KT 10SM CLR 33/12 A2982 RMK AO2 T03340122 10335 20281